createdAt,value
2022-12-11T00:00:55.270Z,33.40
2022-12-11T00:03:22.236Z,44.33
2022-12-11T00:05:49.494Z,38.08
2022-12-11T00:08:16.518Z,46.42
2022-12-11T00:10:50.797Z,43.75
2022-12-11T00:13:18.625Z,41.10
2022-12-11T00:15:46.333Z,41.50
2022-12-11T00:18:14.447Z,39.20
2022-12-11T00:20:41.854Z,39.50
2022-12-11T00:23:09.282Z,41.13
2022-12-11T00:25:36.254Z,39.55
2022-12-11T00:28:03.149Z,41.13
2022-12-11T00:30:30.279Z,38.38
2022-12-11T00:32:57.185Z,42.03
2022-12-11T00:35:24.517Z,38.78
2022-12-11T00:37:51.551Z,44.60
2022-12-11T00:40:21.586Z,38.22
2022-12-11T00:42:48.860Z,34.55
2022-12-11T00:45:16.079Z,39.00
2022-12-11T00:47:43.227Z,39.83
2022-12-11T00:50:10.347Z,37.20
2022-12-11T00:52:37.558Z,43.33
2022-12-11T00:55:05.027Z,34.78
2022-12-11T00:57:32.023Z,39.00
2022-12-11T00:59:59.187Z,36.20
2022-12-11T01:02:26.380Z,50.85
2022-12-11T01:04:53.657Z,43.67
2022-12-11T01:07:20.980Z,41.92
2022-12-11T01:10:09.679Z,41.05
2022-12-11T01:12:36.838Z,43.28
2022-12-11T01:15:04.822Z,45.05
2022-12-11T01:17:31.967Z,39.25
2022-12-11T01:19:58.969Z,44.38
2022-12-11T01:22:26.222Z,40.30
2022-12-11T01:24:53.126Z,38.60
2022-12-11T01:27:20.176Z,42.08
2022-12-11T01:29:47.327Z,40.65
2022-12-11T01:32:14.377Z,44.42
2022-12-11T01:34:41.943Z,44.95
2022-12-11T01:37:08.987Z,39.92
2022-12-11T01:39:38.697Z,44.33
2022-12-11T01:42:10.521Z,44.53
2022-12-11T01:44:37.462Z,44.05
2022-12-11T01:47:04.383Z,45.10
2022-12-11T01:49:31.561Z,44.35
2022-12-11T01:52:19.999Z,47.70
2022-12-11T01:54:48.448Z,39.22
2022-12-11T01:57:16.179Z,42.67
2022-12-11T01:59:46.004Z,48.47
2022-12-11T02:02:26.975Z,44.25
2022-12-11T02:04:54.477Z,43.15
2022-12-11T02:07:21.654Z,38.53
2022-12-11T02:09:49.080Z,43.92
2022-12-11T02:12:27.562Z,43.13
2022-12-11T02:15:11.651Z,39.00
2022-12-11T02:17:41.559Z,42.63
2022-12-11T02:20:29.588Z,44.78
2022-12-11T02:23:08.628Z,59.45
2022-12-11T02:26:13.064Z,39.67
2022-12-11T02:28:58.711Z,39.90
2022-12-11T02:31:48.069Z,41.97
2022-12-11T02:34:23.813Z,40.80
2022-12-11T02:37:00.971Z,41.25
2022-12-11T02:39:29.610Z,39.38
2022-12-11T02:41:57.748Z,39.88
2022-12-11T02:44:28.416Z,46.67
2022-12-11T02:46:56.067Z,39.33
2022-12-11T02:49:24.544Z,42.20
2022-12-11T02:51:53.448Z,48.42
2022-12-11T02:54:27.561Z,42.92
2022-12-11T02:57:02.024Z,38.38
2022-12-11T02:59:42.075Z,44.63
2022-12-11T03:02:11.332Z,45.90
2022-12-11T03:04:39.300Z,47.38
2022-12-11T03:07:23.655Z,44.85
2022-12-11T03:09:56.952Z,37.40
2022-12-11T03:12:34.489Z,41.30
2022-12-11T03:15:06.011Z,45.35
2022-12-11T03:18:11.369Z,42.55
2022-12-11T03:20:44.149Z,41.00
2022-12-11T03:23:50.222Z,42.78
2022-12-11T03:26:19.770Z,38.30
2022-12-11T03:29:15.178Z,46.03
2022-12-11T03:31:46.385Z,46.05
2022-12-11T03:34:30.585Z,45.20
2022-12-11T03:37:00.102Z,42.88
2022-12-11T03:39:33.881Z,49.35
2022-12-11T03:42:03.431Z,44.50
2022-12-11T03:44:32.441Z,43.40
2022-12-11T03:47:02.061Z,48.30
2022-12-11T03:49:33.940Z,48.85
2022-12-11T03:52:03.046Z,45.08
2022-12-11T03:54:33.875Z,51.20
2022-12-11T03:57:04.274Z,48.45
2022-12-11T03:59:31.492Z,49.42
2022-12-11T04:01:58.884Z,45.28
2022-12-11T04:04:26.051Z,48.05
2022-12-11T04:06:53.140Z,56.35
2022-12-11T04:09:20.261Z,53.13
2022-12-11T04:11:47.408Z,51.58
2022-12-11T04:14:34.211Z,53.80
2022-12-11T04:17:02.420Z,51.08
2022-12-11T04:19:47.911Z,54.85
2022-12-11T04:22:36.494Z,51.85
2022-12-11T04:25:06.287Z,58.38
2022-12-11T04:27:54.177Z,56.00
2022-12-11T04:30:24.683Z,55.83
2022-12-11T04:32:55.218Z,54.45
2022-12-11T04:35:22.817Z,58.35
2022-12-11T04:37:50.089Z,56.35
2022-12-11T04:40:20.254Z,57.60
2022-12-11T04:42:47.529Z,60.72
2022-12-11T04:45:15.162Z,55.33
2022-12-11T04:47:42.493Z,55.95
2022-12-11T04:50:12.046Z,58.47
2022-12-11T04:52:39.464Z,58.08
2022-12-11T04:55:08.262Z,61.40
2022-12-11T04:57:35.660Z,57.08
2022-12-11T05:00:05.214Z,59.60
2022-12-11T05:02:35.651Z,67.07
2022-12-11T05:05:04.785Z,59.13
2022-12-11T05:07:32.466Z,63.20
2022-12-11T05:09:59.882Z,58.45
2022-12-11T05:12:27.235Z,56.00
2022-12-11T05:14:55.671Z,71.63
2022-12-11T05:17:23.164Z,58.95
2022-12-11T05:19:51.479Z,58.45
2022-12-11T05:22:18.879Z,63.90
2022-12-11T05:24:46.366Z,59.35
2022-12-11T05:27:13.302Z,62.10
2022-12-11T05:29:40.344Z,60.90
2022-12-11T05:32:07.296Z,60.47
2022-12-11T05:34:34.480Z,58.88
2022-12-11T05:37:02.247Z,62.42
2022-12-11T05:39:29.402Z,60.97
2022-12-11T05:41:56.554Z,60.47
2022-12-11T05:44:23.658Z,61.88
2022-12-11T05:46:51.004Z,59.38
2022-12-11T05:49:19.993Z,59.65
2022-12-11T05:51:47.514Z,59.53
2022-12-11T05:54:14.964Z,63.00
2022-12-11T05:56:42.409Z,65.40
2022-12-11T05:59:09.760Z,59.22
2022-12-11T06:01:42.184Z,69.85
2022-12-11T06:04:11.509Z,59.10
2022-12-11T06:06:40.506Z,58.55
2022-12-11T06:09:08.056Z,55.35
2022-12-11T06:11:38.533Z,54.83
2022-12-11T06:14:05.561Z,53.08
2022-12-11T06:16:33.095Z,54.25
2022-12-11T06:19:03.502Z,54.25
2022-12-11T06:21:33.172Z,57.80
2022-12-11T06:24:05.716Z,58.05
2022-12-11T06:26:33.393Z,56.90
2022-12-11T06:29:05.271Z,60.20
2022-12-11T06:31:38.969Z,62.20
2022-12-11T06:34:11.817Z,58.13
2022-12-11T06:36:41.013Z,57.85
2022-12-11T06:39:08.645Z,59.97
2022-12-11T06:41:35.682Z,57.95
2022-12-11T06:44:03.050Z,67.85
2022-12-11T06:46:30.390Z,61.33
2022-12-11T06:49:09.701Z,69.40
2022-12-11T06:51:40.082Z,60.35
2022-12-11T06:54:10.983Z,64.35
2022-12-11T06:56:38.454Z,60.00
2022-12-11T06:59:07.463Z,63.53
2022-12-11T07:01:37.755Z,60.70
2022-12-11T07:04:05.161Z,59.30
2022-12-11T07:06:32.133Z,66.05
2022-12-11T07:08:59.102Z,63.72
2022-12-11T07:11:26.242Z,72.90
2022-12-11T07:13:53.693Z,64.45
2022-12-11T07:16:20.883Z,65.10
2022-12-11T07:18:50.752Z,57.55
2022-12-11T07:21:18.776Z,64.53
2022-12-11T07:23:46.085Z,64.45
2022-12-11T07:26:16.961Z,61.95
2022-12-11T07:28:44.574Z,66.20
2022-12-11T07:31:17.594Z,67.40
2022-12-11T07:33:45.368Z,67.50
2022-12-11T07:36:14.304Z,73.85
2022-12-11T07:38:42.228Z,63.78
2022-12-11T07:41:12.207Z,65.95
2022-12-11T07:43:39.921Z,61.63
2022-12-11T07:46:22.239Z,59.72
2022-12-11T07:48:50.379Z,65.80
2022-12-11T07:51:28.182Z,70.15
2022-12-11T07:54:00.004Z,73.18
2022-12-11T07:56:29.037Z,70.43
2022-12-11T07:58:56.884Z,60.35
2022-12-11T08:01:30.257Z,65.30
2022-12-11T08:04:01.203Z,62.03
2022-12-11T08:06:31.458Z,65.23
2022-12-11T08:09:02.607Z,70.35
2022-12-11T08:11:30.599Z,69.97
2022-12-11T08:14:09.921Z,66.38
2022-12-11T08:16:38.359Z,71.13
2022-12-11T08:19:08.603Z,69.47
2022-12-11T08:21:40.475Z,64.13
2022-12-11T08:24:12.833Z,70.20
2022-12-11T08:26:44.179Z,68.63
2022-12-11T08:29:11.413Z,65.30
2022-12-11T08:31:48.483Z,70.32
2022-12-11T08:34:33.322Z,66.25
2022-12-11T08:37:11.142Z,65.05
2022-12-11T08:39:51.504Z,69.07
2022-12-11T08:42:33.226Z,65.47
2022-12-11T08:45:14.005Z,58.53
2022-12-11T08:47:45.070Z,64.80
2022-12-11T08:50:20.848Z,60.75
2022-12-11T08:53:00.636Z,60.83
2022-12-11T08:55:37.207Z,61.37
2022-12-11T08:58:14.482Z,50.57
2022-12-11T09:00:44.060Z,62.13
2022-12-11T09:03:24.854Z,55.65
2022-12-11T09:06:09.872Z,62.42
2022-12-11T09:08:51.888Z,62.80
2022-12-11T09:11:25.645Z,56.17
2022-12-11T09:14:07.926Z,53.03
2022-12-11T09:16:45.511Z,52.65
2022-12-11T09:19:22.184Z,55.15
2022-12-11T09:21:52.727Z,56.03
2022-12-11T09:24:24.766Z,54.63
2022-12-11T09:26:52.335Z,52.30
2022-12-11T09:29:19.354Z,53.85
2022-12-11T09:31:47.034Z,51.17
2022-12-11T09:34:14.956Z,52.75
2022-12-11T09:36:44.390Z,50.20
2022-12-11T09:39:25.828Z,50.33
2022-12-11T09:41:58.456Z,52.05
2022-12-11T09:44:41.718Z,47.83
2022-12-11T09:47:52.016Z,48.60
2022-12-11T09:50:28.862Z,51.15
2022-12-11T09:53:19.375Z,45.35
2022-12-11T09:56:14.914Z,45.00
2022-12-11T09:59:06.726Z,41.83
2022-12-11T10:02:18.507Z,44.25
2022-12-11T10:05:15.507Z,45.00
2022-12-11T10:07:53.770Z,43.58
2022-12-11T10:10:30.807Z,42.83
2022-12-11T10:13:18.947Z,48.90
2022-12-11T10:16:04.122Z,43.13
2022-12-11T10:18:35.552Z,41.90
2022-12-11T10:21:08.816Z,44.60
2022-12-11T10:23:54.082Z,46.88
2022-12-11T10:26:23.941Z,44.27
2022-12-11T10:29:01.253Z,41.22
2022-12-11T10:31:52.469Z,41.17
2022-12-11T10:34:40.137Z,39.60
2022-12-11T10:37:11.552Z,41.88
2022-12-11T10:39:39.829Z,44.42
2022-12-11T10:42:22.831Z,37.97
2022-12-11T10:45:01.772Z,38.67
2022-12-11T10:47:35.858Z,38.92
2022-12-11T10:50:07.863Z,43.90
2022-12-11T10:52:47.869Z,37.75
2022-12-11T10:55:48.192Z,41.70
2022-12-11T10:58:34.902Z,39.90
2022-12-11T11:01:19.189Z,37.75
2022-12-11T11:04:01.314Z,44.33
2022-12-11T11:06:28.462Z,42.65
2022-12-11T11:08:57.978Z,38.83
2022-12-11T11:11:34.237Z,37.50
2022-12-11T11:14:13.475Z,39.90
2022-12-11T11:16:43.755Z,37.65
2022-12-11T11:19:23.889Z,40.40
2022-12-11T11:22:05.579Z,44.13
2022-12-11T11:25:09.452Z,39.65
2022-12-11T11:28:29.362Z,34.35
2022-12-11T11:31:33.670Z,37.30
2022-12-11T11:34:08.050Z,37.22
2022-12-11T11:36:40.480Z,37.17
2022-12-11T11:39:36.655Z,36.67
2022-12-11T11:42:42.047Z,34.65
2022-12-11T11:45:33.785Z,33.20
2022-12-11T11:48:24.388Z,39.25
2022-12-11T11:50:58.992Z,40.13
2022-12-11T11:53:41.886Z,44.28
2022-12-11T11:56:27.320Z,40.47
2022-12-11T11:59:15.199Z,39.63
2022-12-11T12:01:43.927Z,41.80
2022-12-11T12:04:12.192Z,39.95
2022-12-11T12:07:05.441Z,37.35
2022-12-11T12:09:59.339Z,35.92
2022-12-11T12:12:41.458Z,33.00
2022-12-11T12:15:41.801Z,37.78
2022-12-11T12:18:38.177Z,36.50
2022-12-11T12:21:33.254Z,33.20
2022-12-11T12:24:36.786Z,33.95
2022-12-11T12:27:51.753Z,32.15
2022-12-11T12:30:25.340Z,28.02
2022-12-11T12:33:28.775Z,31.73
2022-12-11T12:36:35.163Z,28.25
2022-12-11T12:39:17.636Z,31.88
2022-12-11T12:42:10.691Z,32.63
2022-12-11T12:45:01.788Z,30.65
2022-12-11T12:47:33.935Z,29.83
2022-12-11T12:50:06.312Z,36.87
2022-12-11T12:52:38.409Z,28.30
2022-12-11T12:55:32.100Z,40.97
2022-12-11T12:58:05.538Z,29.05
2022-12-11T13:00:37.653Z,27.13
2022-12-11T13:03:20.409Z,36.38
2022-12-11T13:06:08.282Z,28.70
2022-12-11T13:08:47.783Z,24.52
2022-12-11T13:11:20.174Z,26.67
2022-12-11T13:14:01.679Z,25.90
2022-12-11T13:16:37.473Z,30.95
2022-12-11T13:19:25.991Z,31.13
2022-12-11T13:22:14.712Z,31.85
2022-12-11T13:25:02.074Z,28.52
2022-12-11T13:27:32.446Z,25.55
2022-12-11T13:30:14.608Z,25.98
2022-12-11T13:32:43.998Z,27.55
2022-12-11T13:35:17.640Z,23.83
2022-12-11T13:37:51.400Z,24.60
2022-12-11T13:40:29.113Z,24.30
2022-12-11T13:43:36.409Z,26.38
2022-12-11T13:46:10.514Z,28.35
2022-12-11T13:48:50.508Z,25.73
2022-12-11T13:51:21.184Z,23.95
2022-12-11T13:53:48.318Z,25.55
2022-12-11T13:56:20.377Z,22.85
2022-12-11T13:58:48.108Z,24.25
2022-12-11T14:01:21.920Z,21.63
2022-12-11T14:03:56.105Z,25.55
2022-12-11T14:06:24.218Z,23.55
2022-12-11T14:08:54.995Z,22.60
2022-12-11T14:11:34.302Z,21.60
2022-12-11T14:14:06.692Z,24.00
2022-12-11T14:16:34.460Z,24.60
2022-12-11T14:19:06.078Z,30.15
2022-12-11T14:21:33.578Z,23.55
2022-12-11T14:24:06.830Z,24.13
2022-12-11T14:26:38.027Z,33.72
2022-12-11T14:29:06.141Z,23.85
2022-12-11T14:31:45.780Z,20.88
2022-12-11T14:34:25.068Z,24.00
2022-12-11T14:36:52.584Z,24.63
2022-12-11T14:39:24.028Z,22.27
2022-12-11T14:42:18.777Z,20.40
2022-12-11T14:45:12.946Z,22.55
2022-12-11T14:47:43.831Z,24.52
2022-12-11T14:50:19.853Z,21.55
2022-12-11T14:52:53.330Z,23.90
2022-12-11T14:55:28.371Z,25.60
2022-12-11T14:58:07.777Z,25.10
2022-12-11T15:00:37.226Z,24.77
2022-12-11T15:03:07.848Z,25.73
2022-12-11T15:05:40.602Z,26.77
2022-12-11T15:08:11.076Z,24.88
2022-12-11T15:10:42.270Z,22.35
2022-12-11T15:13:11.136Z,23.58
2022-12-11T15:15:46.354Z,25.10
2022-12-11T15:18:27.397Z,24.77
2022-12-11T15:20:57.539Z,20.95
2022-12-11T15:23:24.540Z,23.27
2022-12-11T15:25:57.890Z,22.17
2022-12-11T15:28:36.042Z,23.35
2022-12-11T15:31:06.653Z,23.45
2022-12-11T15:33:34.738Z,27.95
2022-12-11T15:36:07.074Z,25.90
2022-12-11T15:38:37.501Z,22.50
2022-12-11T15:41:06.161Z,24.38
2022-12-11T15:43:37.272Z,38.70
2022-12-11T15:46:05.505Z,42.65
2022-12-11T15:48:32.836Z,45.42
2022-12-11T15:50:59.704Z,38.85
2022-12-11T15:53:26.616Z,34.45
2022-12-11T15:55:54.135Z,28.00
2022-12-11T15:58:24.249Z,34.65
2022-12-11T16:00:51.690Z,27.55
2022-12-11T16:03:20.384Z,25.77
2022-12-11T16:05:48.866Z,24.95
2022-12-11T16:08:18.855Z,28.17
2022-12-11T16:10:46.503Z,28.67
2022-12-11T16:13:14.990Z,28.08
2022-12-11T16:15:44.846Z,28.10
2022-12-11T16:18:15.632Z,27.67
2022-12-11T16:20:43.952Z,31.20
2022-12-11T16:23:12.990Z,31.90
2022-12-11T16:25:41.437Z,39.83
2022-12-11T16:28:09.484Z,34.42
2022-12-11T16:30:37.742Z,38.53
2022-12-11T16:33:11.840Z,36.75
2022-12-11T16:35:40.456Z,34.10
2022-12-11T16:38:07.888Z,33.10
2022-12-11T16:40:34.915Z,34.78
2022-12-11T16:43:02.924Z,36.45
2022-12-11T16:45:30.743Z,39.08
2022-12-11T16:47:57.799Z,41.17
2022-12-11T16:50:26.047Z,38.47
2022-12-11T16:52:53.019Z,47.90
2022-12-11T16:55:22.346Z,35.40
2022-12-11T16:57:49.790Z,34.03
2022-12-11T17:00:17.522Z,30.77
2022-12-11T17:02:44.690Z,32.47
2022-12-11T17:05:12.297Z,36.83
2022-12-11T17:07:40.394Z,36.45
2022-12-11T17:10:08.259Z,33.92
2022-12-11T17:12:35.271Z,32.20
2022-12-11T17:15:02.447Z,37.17
2022-12-11T17:17:29.666Z,41.30
2022-12-11T17:19:56.821Z,32.95
2022-12-11T17:22:23.903Z,35.35
2022-12-11T17:24:51.393Z,34.55
2022-12-11T17:27:18.756Z,28.33
2022-12-11T17:29:47.345Z,27.70
2022-12-11T17:32:14.514Z,26.15
2022-12-11T17:34:41.660Z,29.35
2022-12-11T17:37:08.547Z,27.33
2022-12-11T17:39:36.664Z,24.05
2022-12-11T17:42:03.899Z,25.88
2022-12-11T17:44:31.298Z,29.75
2022-12-11T17:46:59.594Z,31.85
2022-12-11T17:49:26.950Z,28.30
2022-12-11T17:51:57.932Z,30.15
2022-12-11T17:54:24.870Z,34.00
2022-12-11T17:56:51.985Z,32.92
2022-12-11T17:59:19.074Z,30.65
2022-12-11T18:01:46.212Z,28.80
2022-12-11T18:04:13.785Z,33.22
2022-12-11T18:06:41.404Z,34.08
2022-12-11T18:09:08.430Z,34.83
2022-12-11T18:11:35.713Z,29.42
2022-12-11T18:14:03.267Z,27.85
2022-12-11T18:16:33.495Z,32.05
2022-12-11T18:19:01.213Z,29.05
2022-12-11T18:21:31.814Z,31.17
2022-12-11T18:24:02.857Z,28.70
2022-12-11T18:26:30.054Z,29.88
2022-12-11T18:28:57.253Z,26.85
2022-12-11T18:31:24.729Z,30.95
2022-12-11T18:33:52.140Z,29.70
2022-12-11T18:36:20.677Z,26.98
2022-12-11T18:38:49.042Z,26.27
2022-12-11T18:41:18.155Z,28.38
2022-12-11T18:43:45.899Z,28.50
2022-12-11T18:46:15.883Z,29.42
2022-12-11T18:48:44.793Z,27.98
2022-12-11T18:51:14.898Z,28.45
2022-12-11T18:53:42.150Z,31.05
2022-12-11T18:56:12.225Z,26.75
2022-12-11T18:58:39.541Z,30.38
2022-12-11T19:01:24.683Z,29.95
2022-12-11T19:03:57.606Z,31.60
2022-12-11T19:06:30.482Z,33.65
2022-12-11T19:08:59.746Z,27.83
2022-12-11T19:11:29.394Z,29.35
2022-12-11T19:13:58.631Z,39.20
2022-12-11T19:16:33.700Z,30.55
2022-12-11T19:19:04.285Z,31.33
2022-12-11T19:21:31.692Z,33.15
2022-12-11T19:24:01.709Z,33.50
2022-12-11T19:26:29.260Z,27.65
2022-12-11T19:29:00.472Z,29.75
2022-12-11T19:31:30.208Z,30.85
2022-12-11T19:33:57.750Z,26.65
2022-12-11T19:36:26.804Z,33.20
2022-12-11T19:39:00.950Z,30.73
2022-12-11T19:41:32.322Z,32.67
2022-12-11T19:44:06.259Z,28.77
2022-12-11T19:46:33.575Z,31.70
2022-12-11T19:49:01.195Z,28.02
2022-12-11T19:51:34.745Z,29.95
2022-12-11T19:54:05.206Z,32.08
2022-12-11T19:56:33.213Z,33.28
2022-12-11T19:59:03.360Z,33.60
2022-12-11T20:01:32.904Z,30.73
2022-12-11T20:04:06.093Z,34.00
2022-12-11T20:06:34.969Z,27.70
2022-12-11T20:09:05.456Z,27.70
2022-12-11T20:11:33.671Z,28.40
2022-12-11T20:14:02.276Z,28.70
2022-12-11T20:16:53.730Z,29.77
2022-12-11T20:19:19.541Z,25.33
2022-12-11T20:21:46.586Z,28.00
2022-12-11T20:24:14.194Z,29.00
2022-12-11T20:26:43.728Z,25.67
2022-12-11T20:29:12.817Z,26.65
2022-12-11T20:31:43.245Z,27.33
2022-12-11T20:34:14.456Z,30.40
2022-12-11T20:36:41.393Z,27.27
2022-12-11T20:39:08.827Z,25.50
2022-12-11T20:41:35.827Z,28.52
2022-12-11T20:44:02.914Z,31.00
2022-12-11T20:46:32.825Z,28.20
2022-12-11T20:48:59.909Z,22.88
2022-12-11T20:51:28.361Z,28.38
2022-12-11T20:53:59.775Z,27.23
2022-12-11T20:56:31.261Z,27.25
2022-12-11T20:59:05.077Z,27.05
2022-12-11T21:01:33.374Z,27.73
2022-12-11T21:04:01.239Z,28.25
2022-12-11T21:06:36.870Z,30.05
2022-12-11T21:09:08.282Z,29.02
2022-12-11T21:11:35.801Z,26.83
2022-12-11T21:14:03.964Z,26.00
2022-12-11T21:16:32.641Z,26.67
2022-12-11T21:18:59.918Z,25.05
2022-12-11T21:21:32.079Z,28.45
2022-12-11T21:23:59.395Z,28.58
2022-12-11T21:26:26.409Z,25.45
2022-12-11T21:28:53.859Z,27.83
2022-12-11T21:31:20.945Z,28.50
2022-12-11T21:33:48.293Z,28.88
2022-12-11T21:36:15.967Z,27.83
2022-12-11T21:38:44.693Z,26.13
2022-12-11T21:41:15.763Z,26.58
2022-12-11T21:44:24.126Z,28.20
2022-12-11T21:46:32.080Z,26.80
2022-12-11T21:48:59.356Z,29.08
2022-12-11T21:51:36.536Z,30.85
2022-12-11T21:54:07.248Z,29.33
2022-12-11T21:56:34.513Z,29.48
2022-12-11T21:59:01.988Z,31.23
2022-12-11T22:01:35.315Z,29.77
2022-12-11T22:04:02.474Z,28.83
2022-12-11T22:06:29.750Z,23.85
2022-12-11T22:08:56.971Z,31.35
2022-12-11T22:11:26.818Z,30.77
2022-12-11T22:13:54.347Z,33.95
2022-12-11T22:16:24.328Z,26.60
2022-12-11T22:18:51.793Z,31.10
2022-12-11T22:21:19.352Z,29.38
2022-12-11T22:23:46.823Z,30.83
2022-12-11T22:26:20.846Z,30.63
2022-12-11T22:28:51.368Z,31.63
2022-12-11T22:31:20.704Z,30.80
2022-12-11T22:33:51.268Z,34.33
2022-12-11T22:36:19.025Z,31.38
2022-12-11T22:38:47.444Z,35.83
2022-12-11T22:41:23.504Z,33.67
2022-12-11T22:43:51.146Z,31.73
2022-12-11T22:46:20.815Z,33.55
2022-12-11T22:48:48.668Z,31.88
2022-12-11T22:51:16.335Z,34.00
2022-12-11T22:53:43.684Z,33.55
2022-12-11T22:56:12.985Z,32.33
2022-12-11T22:58:40.211Z,31.33
2022-12-11T23:01:13.805Z,33.15
2022-12-11T23:03:41.330Z,30.63
2022-12-11T23:06:11.270Z,30.15
2022-12-11T23:08:39.675Z,27.95
2022-12-11T23:11:20.327Z,31.23
2022-12-11T23:13:48.159Z,28.10
2022-12-11T23:16:15.726Z,32.15
2022-12-11T23:18:43.596Z,29.40
2022-12-11T23:21:11.320Z,27.98
2022-12-11T23:23:38.294Z,29.52
2022-12-11T23:26:07.864Z,28.35
2022-12-11T23:28:34.874Z,29.80
2022-12-11T23:31:02.155Z,30.35
2022-12-11T23:33:29.176Z,34.75
2022-12-11T23:35:56.155Z,29.58
2022-12-11T23:38:23.268Z,26.75
2022-12-11T23:40:50.771Z,29.98
2022-12-11T23:43:17.878Z,28.40
2022-12-11T23:45:45.700Z,30.95
2022-12-11T23:48:13.711Z,27.80
2022-12-11T23:50:42.120Z,32.75
2022-12-11T23:53:12.511Z,31.08
2022-12-11T23:55:41.442Z,26.67
2022-12-11T23:58:08.695Z,28.85
